createdAt,value
2018-07-07T00:02:59.938Z,19.30
2018-07-07T00:08:03.794Z,19.30
2018-07-07T00:12:59.729Z,19.30
2018-07-07T00:17:55.639Z,19.30
2018-07-07T00:22:50.258Z,19.30
2018-07-07T00:27:45.872Z,19.30
2018-07-07T00:32:40.868Z,19.20
2018-07-07T00:42:30.170Z,19.20
2018-07-07T00:47:25.549Z,19.20
2018-07-07T00:52:20.159Z,19.20
2018-07-07T00:57:15.112Z,19.10
2018-07-07T01:02:16.764Z,19.10
2018-07-07T01:07:11.357Z,19.10
2018-07-07T01:12:05.983Z,19.10
2018-07-07T01:17:00.800Z,19.10
2018-07-07T01:21:57.003Z,19.10
2018-07-07T01:31:46.241Z,19.10
2018-07-07T01:36:41.502Z,19.10
2018-07-07T01:41:35.975Z,19.10
2018-07-07T01:46:30.529Z,19.20
2018-07-07T01:51:26.340Z,19.20
2018-07-07T01:56:20.936Z,19.20
2018-07-07T02:01:16.399Z,19.20
2018-07-07T02:06:11.112Z,19.10
2018-07-07T02:11:05.674Z,19.20
2018-07-07T02:16:00.132Z,19.20
2018-07-07T02:20:54.720Z,19.30
2018-07-07T02:25:49.312Z,19.30
2018-07-07T02:30:43.799Z,19.20
2018-07-07T02:35:38.544Z,19.20
2018-07-07T02:40:33.464Z,19.10
2018-07-07T02:45:28.174Z,19.10
2018-07-07T02:50:22.643Z,19.00
2018-07-07T02:55:23.081Z,18.90
2018-07-07T03:05:12.213Z,18.80
2018-07-07T03:10:20.655Z,18.70
2018-07-07T03:15:22.103Z,18.70
2018-07-07T03:25:14.999Z,18.90
2018-07-07T03:30:11.039Z,18.90
2018-07-07T03:35:05.766Z,18.90
2018-07-07T03:40:00.541Z,18.90
2018-07-07T03:44:55.586Z,18.90
2018-07-07T03:54:45.378Z,18.80
2018-07-07T03:59:40.399Z,18.70
2018-07-07T04:04:35.428Z,18.80
2018-07-07T04:09:30.046Z,18.90
2018-07-07T04:14:24.703Z,19.00
2018-07-07T04:24:13.658Z,19.30
2018-07-07T04:29:08.099Z,19.40
2018-07-07T04:34:02.571Z,19.60
2018-07-07T04:38:57.343Z,19.80
2018-07-07T04:43:51.826Z,20.00
2018-07-07T04:48:46.341Z,20.10
2018-07-07T04:53:41.392Z,20.20
2018-07-07T04:58:36.063Z,20.30
2018-07-07T05:03:30.753Z,20.50
2018-07-07T05:08:25.328Z,20.80
2018-07-07T05:13:19.926Z,21.30
2018-07-07T05:18:15.241Z,21.80
2018-07-07T05:28:04.200Z,23.80
2018-07-07T05:32:58.801Z,25.40
2018-07-07T05:37:53.366Z,25.90
2018-07-07T05:47:42.226Z,25.50
2018-07-07T05:52:36.992Z,25.60
2018-07-07T06:02:26.278Z,26.50
2018-07-07T06:07:21.505Z,27.20
2018-07-07T06:12:16.079Z,27.30
2018-07-07T06:17:10.847Z,27.60
2018-07-07T06:22:05.661Z,28.80
2018-07-07T06:27:00.728Z,30.60
2018-07-07T06:36:52.232Z,30.10
2018-07-07T06:41:47.157Z,29.20
2018-07-07T06:46:42.473Z,29.30
2018-07-07T06:51:37.461Z,30.50
2018-07-07T06:56:32.718Z,32.70
2018-07-07T07:01:27.525Z,33.80
2018-07-07T07:06:23.220Z,34.40
2018-07-07T07:11:18.541Z,35.90
2018-07-07T07:21:08.026Z,40.40
2018-07-07T07:26:02.836Z,41.50
2018-07-07T07:30:57.999Z,42.70
2018-07-07T07:40:47.483Z,45.70
2018-07-07T07:45:42.259Z,46.70
2018-07-07T07:50:37.878Z,47.40
2018-07-07T07:55:32.616Z,47.10
2018-07-07T08:00:27.366Z,48.00
2018-07-07T08:05:22.141Z,47.80
2018-07-07T08:10:17.115Z,48.00
2018-07-07T08:15:11.886Z,49.60
2018-07-07T08:20:06.684Z,50.90
2018-07-07T08:25:01.471Z,51.60
2018-07-07T08:29:56.390Z,51.00
2018-07-07T08:34:51.581Z,52.20
2018-07-07T08:39:46.476Z,52.20
2018-07-07T08:44:41.574Z,51.00
2018-07-07T08:49:36.653Z,48.90
2018-07-07T08:59:25.985Z,47.70
2018-07-07T09:04:20.809Z,48.30
2018-07-07T09:09:15.786Z,51.00
2018-07-07T09:14:10.530Z,50.30
2018-07-07T09:24:00.042Z,52.40
2018-07-07T09:28:55.246Z,53.70
2018-07-07T09:33:50.074Z,54.40
2018-07-07T09:38:52.382Z,52.60
2018-07-07T09:43:47.408Z,49.30
2018-07-07T09:48:53.771Z,48.20
2018-07-07T09:58:43.587Z,47.90
2018-07-07T10:03:39.053Z,43.10
2018-07-07T10:08:34.108Z,39.00
2018-07-07T10:13:29.068Z,36.70
2018-07-07T10:18:24.905Z,34.20
2018-07-07T10:23:19.686Z,32.30
2018-07-07T10:28:15.294Z,30.80
2018-07-07T10:33:10.078Z,29.70
2018-07-07T10:38:05.028Z,28.90
2018-07-07T10:43:00.519Z,28.40
2018-07-07T10:47:55.486Z,27.60
2018-07-07T10:52:50.061Z,27.40
2018-07-07T10:57:45.059Z,27.60
2018-07-07T11:02:39.709Z,27.20
2018-07-07T11:07:34.374Z,26.90
2018-07-07T11:12:29.019Z,26.70
2018-07-07T11:17:24.092Z,26.70
2018-07-07T11:22:18.603Z,26.70
2018-07-07T11:27:13.685Z,26.40
2018-07-07T11:32:08.213Z,26.30
2018-07-07T11:37:02.803Z,26.20
2018-07-07T11:41:57.495Z,26.30
2018-07-07T11:51:46.755Z,26.20
2018-07-07T11:56:41.272Z,26.20
2018-07-07T12:01:35.772Z,26.20
2018-07-07T12:06:30.298Z,26.20
2018-07-07T12:11:24.809Z,26.20
2018-07-07T12:16:19.781Z,26.20
2018-07-07T12:21:14.457Z,26.40
2018-07-07T12:31:03.540Z,26.20
2018-07-07T12:35:58.182Z,26.20
2018-07-07T12:45:48.332Z,26.60
2018-07-07T12:50:43.629Z,26.60
2018-07-07T12:55:38.400Z,26.70
2018-07-07T13:00:33.116Z,26.40
2018-07-07T13:05:27.900Z,26.60
2018-07-07T13:10:22.712Z,26.50
2018-07-07T13:15:17.459Z,26.50
2018-07-07T13:20:11.956Z,26.60
2018-07-07T13:25:06.519Z,26.40
2018-07-07T13:30:01.073Z,26.40
2018-07-07T13:34:55.604Z,26.50
2018-07-07T13:39:50.441Z,26.70
2018-07-07T13:44:45.108Z,26.70
2018-07-07T13:49:40.133Z,26.80
2018-07-07T13:54:34.696Z,27.10
2018-07-07T13:59:29.225Z,27.00
2018-07-07T14:04:25.791Z,27.20
2018-07-07T14:09:20.655Z,26.90
2018-07-07T14:14:15.383Z,26.80
2018-07-07T14:19:10.031Z,26.80
2018-07-07T14:24:04.836Z,27.00
2018-07-07T14:28:59.475Z,27.00
2018-07-07T14:33:53.965Z,26.80
2018-07-07T14:38:48.584Z,27.00
2018-07-07T14:44:03.467Z,27.00
2018-07-07T14:48:59.727Z,27.00
2018-07-07T14:53:54.761Z,26.80
2018-07-07T15:03:44.457Z,26.50
2018-07-07T15:08:38.971Z,26.50
2018-07-07T15:13:35.943Z,26.50
2018-07-07T15:18:31.005Z,26.50
2018-07-07T15:23:26.390Z,26.70
2018-07-07T15:28:21.063Z,26.50
2018-07-07T15:33:15.656Z,26.70
2018-07-07T15:38:10.496Z,26.70
2018-07-07T15:43:04.967Z,26.80
2018-07-07T15:47:59.605Z,26.50
2018-07-07T15:52:54.683Z,26.40
2018-07-07T15:57:49.276Z,26.30
2018-07-07T16:07:38.666Z,26.80
2018-07-07T16:12:33.735Z,26.80
2018-07-07T16:17:28.557Z,26.90
2018-07-07T16:22:23.081Z,27.10
2018-07-07T16:27:17.659Z,27.40
2018-07-07T16:32:12.276Z,27.10
2018-07-07T16:37:06.995Z,27.20
2018-07-07T16:42:01.905Z,27.30
2018-07-07T16:46:57.100Z,27.50
2018-07-07T16:51:51.874Z,27.40
2018-07-07T16:56:46.522Z,27.30
2018-07-07T17:01:41.227Z,27.10
2018-07-07T17:06:36.620Z,27.00
2018-07-07T17:11:31.476Z,27.00
2018-07-07T17:21:21.983Z,26.40
2018-07-07T17:26:22.662Z,26.30
2018-07-07T17:31:18.084Z,26.00
2018-07-07T17:41:08.498Z,25.70
2018-07-07T17:46:03.392Z,25.70
2018-07-07T17:50:58.362Z,25.70
2018-07-07T17:55:53.373Z,25.70
2018-07-07T18:00:48.250Z,25.70
2018-07-07T18:05:42.955Z,25.60
2018-07-07T18:10:37.476Z,25.50
2018-07-07T18:15:32.204Z,25.50
2018-07-07T18:20:26.820Z,25.40
2018-07-07T18:25:21.340Z,25.30
2018-07-07T18:30:15.836Z,25.10
2018-07-07T18:35:10.334Z,24.90
2018-07-07T18:40:04.889Z,24.80
2018-07-07T18:44:59.540Z,24.60
2018-07-07T18:49:54.593Z,24.50
2018-07-07T18:54:50.178Z,24.40
2018-07-07T18:59:45.317Z,24.30
2018-07-07T19:04:39.862Z,24.10
2018-07-07T19:14:29.077Z,23.90
2018-07-07T19:24:23.284Z,23.60
2018-07-07T19:29:17.918Z,23.50
2018-07-07T19:34:17.875Z,23.30
2018-07-07T19:39:12.402Z,23.10
2018-07-07T19:44:07.001Z,23.00
2018-07-07T19:49:01.960Z,22.80
2018-07-07T19:53:56.596Z,22.60
2018-07-07T19:58:51.250Z,22.50
2018-07-07T20:03:45.830Z,22.30
2018-07-07T20:08:42.146Z,22.20
2018-07-07T20:18:46.957Z,21.90
2018-07-07T20:23:41.816Z,21.80
2018-07-07T20:28:41.418Z,21.70
2018-07-07T20:33:35.927Z,21.60
2018-07-07T20:38:30.527Z,21.40
2018-07-07T20:43:24.993Z,21.30
2018-07-07T20:48:18.516Z,21.20
2018-07-07T20:53:13.006Z,21.00
2018-07-07T20:58:08.052Z,20.90
2018-07-07T21:03:02.694Z,20.80
2018-07-07T21:07:57.175Z,20.70
2018-07-07T21:12:51.890Z,20.50
2018-07-07T21:17:46.412Z,20.50
2018-07-07T21:22:41.074Z,20.30
2018-07-07T21:27:35.548Z,20.30
2018-07-07T21:32:31.072Z,20.20
2018-07-07T21:37:25.732Z,20.10
2018-07-07T21:42:20.257Z,20.00
2018-07-07T21:47:15.261Z,20.00
2018-07-07T21:52:10.667Z,19.90
2018-07-07T21:57:05.348Z,19.80
2018-07-07T22:07:07.201Z,19.70
2018-07-07T22:12:02.212Z,19.60
2018-07-07T22:16:57.027Z,19.60
2018-07-07T22:22:03.704Z,19.60
2018-07-07T22:27:00.810Z,19.60
2018-07-07T22:31:56.661Z,19.50
2018-07-07T22:36:51.691Z,19.40
2018-07-07T22:41:58.324Z,19.40
2018-07-07T22:46:53.558Z,19.30
2018-07-07T22:51:48.169Z,19.30
2018-07-07T22:56:43.452Z,19.30
2018-07-07T23:01:38.266Z,19.30
2018-07-07T23:06:33.214Z,19.20
2018-07-07T23:11:28.174Z,19.00
2018-07-07T23:16:23.000Z,18.90
2018-07-07T23:21:18.098Z,18.70
2018-07-07T23:26:15.247Z,18.70
2018-07-07T23:31:10.311Z,18.60
2018-07-07T23:36:06.040Z,18.50
2018-07-07T23:45:57.613Z,18.20
2018-07-07T23:50:52.332Z,18.10
2018-07-07T23:55:48.314Z,18.00
